sensor_id;sensor_type;location;lat;lon;timestamp;pressure;altitude;pressure_sealevel;temperature;humidity
45129;BME280;35512;56.312;101.728;2023-02-16T00:01:15;97265.50;;;-16.31;70.40
45129;BME280;35512;56.312;101.728;2023-02-16T00:03:45;97264.06;;;-16.34;70.56
45129;BME280;35512;56.312;101.728;2023-02-16T00:06:15;97269.91;;;-16.31;70.78
45129;BME280;35512;56.312;101.728;2023-02-16T00:08:49;97258.34;;;-16.52;70.59
45129;BME280;35512;56.312;101.728;2023-02-16T00:11:33;97284.97;;;-16.43;70.35
45129;BME280;35512;56.312;101.728;2023-02-16T00:14:22;97275.34;;;-16.58;70.77
45129;BME280;35512;56.312;101.728;2023-02-16T00:16:55;97284.38;;;-16.54;70.45
45129;BME280;35512;56.312;101.728;2023-02-16T00:19:36;97276.78;;;-16.55;70.52
45129;BME280;35512;56.312;101.728;2023-02-16T00:22:06;97280.81;;;-16.53;70.64
45129;BME280;35512;56.312;101.728;2023-02-16T00:24:35;97282.44;;;-16.52;70.47
45129;BME280;35512;56.312;101.728;2023-02-16T00:27:12;97281.00;;;-16.54;70.41
45129;BME280;35512;56.312;101.728;2023-02-16T00:29:42;97281.50;;;-16.59;70.41
45129;BME280;35512;56.312;101.728;2023-02-16T00:32:12;97288.13;;;-16.64;70.73
45129;BME280;35512;56.312;101.728;2023-02-16T00:34:44;97290.75;;;-16.73;70.55
45129;BME280;35512;56.312;101.728;2023-02-16T00:37:13;97284.44;;;-16.70;70.26
45129;BME280;35512;56.312;101.728;2023-02-16T00:39:43;97291.41;;;-16.71;70.49
45129;BME280;35512;56.312;101.728;2023-02-16T00:42:22;97282.72;;;-16.78;70.70
45129;BME280;35512;56.312;101.728;2023-02-16T00:44:55;97284.03;;;-16.82;70.71
45129;BME280;35512;56.312;101.728;2023-02-16T00:47:41;97286.63;;;-16.82;70.63
45129;BME280;35512;56.312;101.728;2023-02-16T00:50:23;97290.63;;;-16.79;70.71
45129;BME280;35512;56.312;101.728;2023-02-16T00:52:54;97288.03;;;-16.79;70.58
45129;BME280;35512;56.312;101.728;2023-02-16T00:55:28;97286.91;;;-16.77;70.71
45129;BME280;35512;56.312;101.728;2023-02-16T01:01:08;97294.31;;;-16.65;70.64
45129;BME280;35512;56.312;101.728;2023-02-16T01:03:36;97294.75;;;-16.62;70.57
45129;BME280;35512;56.312;101.728;2023-02-16T01:06:06;97285.84;;;-16.59;70.58
45129;BME280;35512;56.312;101.728;2023-02-16T01:08:54;97286.13;;;-16.46;70.61
45129;BME280;35512;56.312;101.728;2023-02-16T01:11:46;97286.69;;;-16.27;70.67
45129;BME280;35512;56.312;101.728;2023-02-16T01:14:15;97282.44;;;-15.97;70.61
45129;BME280;35512;56.312;101.728;2023-02-16T01:16:44;97281.91;;;-15.54;70.46
45129;BME280;35512;56.312;101.728;2023-02-16T01:19:13;97282.34;;;-14.98;70.30
45129;BME280;35512;56.312;101.728;2023-02-16T01:21:42;97277.97;;;-14.46;69.83
45129;BME280;35512;56.312;101.728;2023-02-16T01:24:11;97264.94;;;-14.16;69.05
45129;BME280;35512;56.312;101.728;2023-02-16T01:26:43;97283.00;;;-14.07;68.49
45129;BME280;35512;56.312;101.728;2023-02-16T01:29:19;97288.56;;;-13.89;69.17
45129;BME280;35512;56.312;101.728;2023-02-16T01:31:49;97290.72;;;-13.49;69.04
45129;BME280;35512;56.312;101.728;2023-02-16T01:34:18;97293.22;;;-12.99;69.08
45129;BME280;35512;56.312;101.728;2023-02-16T01:36:48;97292.50;;;-12.51;68.31
45129;BME280;35512;56.312;101.728;2023-02-16T01:39:18;97296.66;;;-12.15;68.12
45129;BME280;35512;56.312;101.728;2023-02-16T01:44:46;97292.94;;;-11.26;67.45
45129;BME280;35512;56.312;101.728;2023-02-16T01:50:16;97291.63;;;-10.11;66.53
45129;BME280;35512;56.312;101.728;2023-02-16T01:52:56;97287.25;;;-9.53;66.04
45129;BME280;35512;56.312;101.728;2023-02-16T01:55:31;97288.97;;;-8.90;65.69
45129;BME280;35512;56.312;101.728;2023-02-16T02:06:16;97283.13;;;-6.26;63.87
45129;BME280;35512;56.312;101.728;2023-02-16T02:08:53;97288.47;;;-5.81;63.26
45129;BME280;35512;56.312;101.728;2023-02-16T02:14:08;97289.25;;;-5.34;62.67
45129;BME280;35512;56.312;101.728;2023-02-16T02:16:37;97284.38;;;-5.26;62.58
45129;BME280;35512;56.312;101.728;2023-02-16T02:19:06;97278.25;;;-4.97;62.80
45129;BME280;35512;56.312;101.728;2023-02-16T02:27:33;97287.13;;;-4.03;62.05
45129;BME280;35512;56.312;101.728;2023-02-16T02:30:09;97288.25;;;-3.71;61.57
45129;BME280;35512;56.312;101.728;2023-02-16T02:41:24;97289.69;;;-2.56;60.06
45129;BME280;35512;56.312;101.728;2023-02-16T02:44:21;97292.72;;;-2.32;59.91
45129;BME280;35512;56.312;101.728;2023-02-16T02:46:51;97290.75;;;-1.99;59.45
45129;BME280;35512;56.312;101.728;2023-02-16T02:49:20;97290.09;;;-1.48;59.28
45129;BME280;35512;56.312;101.728;2023-02-16T02:51:50;97270.50;;;-1.16;59.03
45129;BME280;35512;56.312;101.728;2023-02-16T02:54:31;97260.69;;;-0.84;58.58
45129;BME280;35512;56.312;101.728;2023-02-16T02:57:31;97279.22;;;-0.69;58.22
45129;BME280;35512;56.312;101.728;2023-02-16T03:00:23;97275.50;;;-0.63;57.62
45129;BME280;35512;56.312;101.728;2023-02-16T03:05:53;97278.34;;;-0.28;57.92
45129;BME280;35512;56.312;101.728;2023-02-16T03:08:26;97277.03;;;0.24;57.83
45129;BME280;35512;56.312;101.728;2023-02-16T03:11:00;97276.84;;;0.60;56.82
45129;BME280;35512;56.312;101.728;2023-02-16T03:13:54;97277.41;;;0.92;56.46
45129;BME280;35512;56.312;101.728;2023-02-16T03:16:37;97266.59;;;1.12;56.29
45129;BME280;35512;56.312;101.728;2023-02-16T03:19:10;97275.78;;;1.25;55.54
45129;BME280;35512;56.312;101.728;2023-02-16T03:21:59;97278.06;;;1.08;56.12
45129;BME280;35512;56.312;101.728;2023-02-16T03:24:46;97264.84;;;1.27;56.48
45129;BME280;35512;56.312;101.728;2023-02-16T03:27:37;97279.75;;;1.81;55.48
45129;BME280;35512;56.312;101.728;2023-02-16T03:30:25;97263.38;;;1.69;54.87
45129;BME280;35512;56.312;101.728;2023-02-16T03:32:55;97276.03;;;1.58;54.48
45129;BME280;35512;56.312;101.728;2023-02-16T03:35:24;97276.34;;;1.51;54.69
45129;BME280;35512;56.312;101.728;2023-02-16T03:37:53;97271.31;;;1.74;54.60
45129;BME280;35512;56.312;101.728;2023-02-16T03:40:25;97276.69;;;1.93;54.03
45129;BME280;35512;56.312;101.728;2023-02-16T03:42:59;97280.03;;;2.23;54.14
45129;BME280;35512;56.312;101.728;2023-02-16T03:45:29;97283.53;;;2.43;53.42
45129;BME280;35512;56.312;101.728;2023-02-16T03:47:58;97281.00;;;2.70;53.62
45129;BME280;35512;56.312;101.728;2023-02-16T03:50:28;97280.38;;;2.93;53.19
45129;BME280;35512;56.312;101.728;2023-02-16T03:52:57;97288.63;;;2.96;52.88
45129;BME280;35512;56.312;101.728;2023-02-16T03:55:36;97283.88;;;2.74;53.47
45129;BME280;35512;56.312;101.728;2023-02-16T03:58:07;97281.28;;;2.69;53.77
45129;BME280;35512;56.312;101.728;2023-02-16T04:00:37;97283.56;;;2.95;53.89
45129;BME280;35512;56.312;101.728;2023-02-16T04:03:07;97278.47;;;3.45;53.45
45129;BME280;35512;56.312;101.728;2023-02-16T04:05:39;97272.34;;;3.86;52.93
45129;BME280;35512;56.312;101.728;2023-02-16T04:08:09;97273.13;;;4.15;52.61
45129;BME280;35512;56.312;101.728;2023-02-16T04:10:38;97278.84;;;4.22;52.25
45129;BME280;35512;56.312;101.728;2023-02-16T04:13:07;97280.75;;;3.52;52.72
45129;BME280;35512;56.312;101.728;2023-02-16T04:15:36;97274.97;;;2.98;53.14
45129;BME280;35512;56.312;101.728;2023-02-16T04:18:06;97270.28;;;3.09;54.34
45129;BME280;35512;56.312;101.728;2023-02-16T04:20:34;97277.47;;;3.83;53.77
45129;BME280;35512;56.312;101.728;2023-02-16T04:23:04;97277.41;;;3.88;53.00
45129;BME280;35512;56.312;101.728;2023-02-16T04:25:33;97272.50;;;3.34;52.71
45129;BME280;35512;56.312;101.728;2023-02-16T04:28:02;97273.66;;;3.28;53.27
45129;BME280;35512;56.312;101.728;2023-02-16T04:30:31;97283.44;;;2.86;53.23
45129;BME280;35512;56.312;101.728;2023-02-16T04:33:00;97264.84;;;2.62;54.07
45129;BME280;35512;56.312;101.728;2023-02-16T04:35:29;97273.22;;;3.07;54.27
45129;BME280;35512;56.312;101.728;2023-02-16T04:37:58;97277.19;;;3.57;53.13
45129;BME280;35512;56.312;101.728;2023-02-16T04:40:26;97269.47;;;3.41;52.52
45129;BME280;35512;56.312;101.728;2023-02-16T04:42:56;97280.09;;;3.27;52.71
45129;BME280;35512;56.312;101.728;2023-02-16T04:45:25;97281.13;;;1.79;52.33
45129;BME280;35512;56.312;101.728;2023-02-16T04:47:54;97280.25;;;-0.49;53.38
45129;BME280;35512;56.312;101.728;2023-02-16T04:50:23;97278.31;;;-1.98;56.17
45129;BME280;35512;56.312;101.728;2023-02-16T04:52:52;97283.75;;;-1.37;57.34
45129;BME280;35512;56.312;101.728;2023-02-16T04:55:21;97272.00;;;-0.32;55.73
45129;BME280;35512;56.312;101.728;2023-02-16T04:57:50;97268.75;;;1.10;53.56
45129;BME280;35512;56.312;101.728;2023-02-16T05:00:19;97261.81;;;1.68;51.87
45129;BME280;35512;56.312;101.728;2023-02-16T05:02:49;97256.53;;;1.63;52.32
45129;BME280;35512;56.312;101.728;2023-02-16T05:05:18;97256.47;;;2.68;51.73
45129;BME280;35512;56.312;101.728;2023-02-16T05:07:47;97260.84;;;3.58;51.02
45129;BME280;35512;56.312;101.728;2023-02-16T05:10:16;97248.56;;;3.29;49.47
45129;BME280;35512;56.312;101.728;2023-02-16T05:12:45;97247.63;;;3.06;50.50
45129;BME280;35512;56.312;101.728;2023-02-16T05:15:32;97260.91;;;2.40;50.05
45129;BME280;35512;56.312;101.728;2023-02-16T05:18:01;97243.44;;;1.13;51.14
45129;BME280;35512;56.312;101.728;2023-02-16T05:20:30;97254.28;;;0.53;52.89
45129;BME280;35512;56.312;101.728;2023-02-16T05:23:17;97252.16;;;0.89;52.63
45129;BME280;35512;56.312;101.728;2023-02-16T05:25:46;97255.41;;;1.45;52.46
45129;BME280;35512;56.312;101.728;2023-02-16T05:28:15;97239.91;;;1.95;51.82
45129;BME280;35512;56.312;101.728;2023-02-16T05:30:44;97248.75;;;1.42;50.85
45129;BME280;35512;56.312;101.728;2023-02-16T05:33:13;97253.13;;;0.69;52.46
45129;BME280;35512;56.312;101.728;2023-02-16T05:35:42;97232.56;;;0.01;52.50
45129;BME280;35512;56.312;101.728;2023-02-16T05:38:11;97242.66;;;-0.82;52.79
45129;BME280;35512;56.312;101.728;2023-02-16T05:40:40;97247.97;;;-1.29;54.37
45129;BME280;35512;56.312;101.728;2023-02-16T05:43:09;97247.94;;;-1.75;53.45
45129;BME280;35512;56.312;101.728;2023-02-16T05:45:38;97247.44;;;-2.41;54.33
45129;BME280;35512;56.312;101.728;2023-02-16T05:48:07;97236.44;;;-2.22;54.79
45129;BME280;35512;56.312;101.728;2023-02-16T05:50:35;97239.22;;;-0.88;54.06
45129;BME280;35512;56.312;101.728;2023-02-16T05:53:04;97237.19;;;-0.26;52.55
45129;BME280;35512;56.312;101.728;2023-02-16T05:55:33;97244.56;;;0.38;52.55
45129;BME280;35512;56.312;101.728;2023-02-16T05:58:02;97232.69;;;0.64;51.80
45129;BME280;35512;56.312;101.728;2023-02-16T06:00:31;97232.53;;;1.14;51.70
45129;BME280;35512;56.312;101.728;2023-02-16T06:03:01;97223.13;;;1.95;51.53
45129;BME280;35512;56.312;101.728;2023-02-16T06:05:30;97229.28;;;2.52;50.58
45129;BME280;35512;56.312;101.728;2023-02-16T06:08:00;97228.06;;;2.78;50.10
45129;BME280;35512;56.312;101.728;2023-02-16T06:10:29;97226.91;;;2.13;50.39
45129;BME280;35512;56.312;101.728;2023-02-16T06:12:58;97219.09;;;1.30;52.13
45129;BME280;35512;56.312;101.728;2023-02-16T06:15:27;97197.56;;;0.67;52.99
45129;BME280;35512;56.312;101.728;2023-02-16T06:17:56;97219.63;;;1.27;53.24
45129;BME280;35512;56.312;101.728;2023-02-16T06:20:25;97215.78;;;2.25;52.42
45129;BME280;35512;56.312;101.728;2023-02-16T06:22:54;97226.06;;;2.69;51.31
45129;BME280;35512;56.312;101.728;2023-02-16T06:25:22;97219.16;;;1.92;51.66
45129;BME280;35512;56.312;101.728;2023-02-16T06:27:51;97209.00;;;0.97;52.71
45129;BME280;35512;56.312;101.728;2023-02-16T06:30:20;97205.94;;;0.85;53.79
45129;BME280;35512;56.312;101.728;2023-02-16T06:32:49;97201.97;;;1.36;53.86
45129;BME280;35512;56.312;101.728;2023-02-16T06:35:18;97225.59;;;2.10;52.78
45129;BME280;35512;56.312;101.728;2023-02-16T06:37:47;97224.56;;;2.96;51.99
45129;BME280;35512;56.312;101.728;2023-02-16T06:40:17;97221.03;;;3.15;50.86
45129;BME280;35512;56.312;101.728;2023-02-16T06:42:46;97212.19;;;3.75;50.94
45129;BME280;35512;56.312;101.728;2023-02-16T06:45:15;97210.19;;;4.68;50.53
45129;BME280;35512;56.312;101.728;2023-02-16T06:47:44;97200.25;;;5.63;49.63
45129;BME280;35512;56.312;101.728;2023-02-16T06:50:13;97209.91;;;6.30;49.79
45129;BME280;35512;56.312;101.728;2023-02-16T06:52:42;97216.34;;;6.73;48.70
45129;BME280;35512;56.312;101.728;2023-02-16T06:55:11;97211.13;;;6.68;48.24
45129;BME280;35512;56.312;101.728;2023-02-16T06:57:40;97199.31;;;6.51;47.84
45129;BME280;35512;56.312;101.728;2023-02-16T07:00:10;97198.22;;;6.52;48.13
45129;BME280;35512;56.312;101.728;2023-02-16T07:02:40;97197.41;;;6.69;48.65
45129;BME280;35512;56.312;101.728;2023-02-16T07:05:11;97197.69;;;6.94;48.21
45129;BME280;35512;56.312;101.728;2023-02-16T07:07:40;97200.78;;;7.22;48.25
45129;BME280;35512;56.312;101.728;2023-02-16T07:10:09;97206.13;;;7.22;47.98
45129;BME280;35512;56.312;101.728;2023-02-16T07:12:39;97198.78;;;7.10;48.01
45129;BME280;35512;56.312;101.728;2023-02-16T07:15:08;97201.44;;;7.10;47.98
45129;BME280;35512;56.312;101.728;2023-02-16T07:17:37;97192.47;;;7.06;47.55
45129;BME280;35512;56.312;101.728;2023-02-16T07:20:07;97193.06;;;7.03;47.83
45129;BME280;35512;56.312;101.728;2023-02-16T07:22:36;97201.41;;;7.19;47.94
45129;BME280;35512;56.312;101.728;2023-02-16T07:25:05;97199.38;;;7.07;47.19
45129;BME280;35512;56.312;101.728;2023-02-16T07:27:34;97194.69;;;6.87;47.53
45129;BME280;35512;56.312;101.728;2023-02-16T07:30:03;97196.09;;;7.02;47.50
45129;BME280;35512;56.312;101.728;2023-02-16T07:32:32;97207.88;;;7.27;47.40
45129;BME280;35512;56.312;101.728;2023-02-16T07:35:01;97198.78;;;7.49;47.13
45129;BME280;35512;56.312;101.728;2023-02-16T07:37:30;97201.84;;;7.30;46.58
45129;BME280;35512;56.312;101.728;2023-02-16T07:39:59;97206.94;;;7.14;47.27
45129;BME280;35512;56.312;101.728;2023-02-16T07:42:30;97190.25;;;7.00;47.47
45129;BME280;35512;56.312;101.728;2023-02-16T07:44:59;97200.38;;;6.85;46.92
45129;BME280;35512;56.312;101.728;2023-02-16T07:47:30;97199.47;;;6.55;47.80
45129;BME280;35512;56.312;101.728;2023-02-16T07:49:59;97192.84;;;6.35;47.77
45129;BME280;35512;56.312;101.728;2023-02-16T07:52:30;97196.16;;;6.32;47.71
45129;BME280;35512;56.312;101.728;2023-02-16T07:54:59;97197.56;;;6.03;47.96
45129;BME280;35512;56.312;101.728;2023-02-16T07:57:29;97199.59;;;5.48;48.23
45129;BME280;35512;56.312;101.728;2023-02-16T07:59:58;97200.25;;;4.68;48.81
45129;BME280;35512;56.312;101.728;2023-02-16T08:02:27;97201.03;;;3.45;49.03
45129;BME280;35512;56.312;101.728;2023-02-16T08:04:57;97200.66;;;1.82;50.32
45129;BME280;35512;56.312;101.728;2023-02-16T08:07:26;97199.22;;;1.46;52.13
45129;BME280;35512;56.312;101.728;2023-02-16T08:09:56;97190.31;;;1.99;51.59
45129;BME280;35512;56.312;101.728;2023-02-16T08:12:24;97206.34;;;2.51;50.25
45129;BME280;35512;56.312;101.728;2023-02-16T08:14:53;97203.25;;;2.63;49.90
45129;BME280;35512;56.312;101.728;2023-02-16T08:17:22;97190.94;;;2.81;49.27
45129;BME280;35512;56.312;101.728;2023-02-16T08:19:51;97203.00;;;2.93;49.34
45129;BME280;35512;56.312;101.728;2023-02-16T08:22:20;97208.47;;;3.01;48.33
45129;BME280;35512;56.312;101.728;2023-02-16T08:24:49;97204.59;;;2.94;48.95
45129;BME280;35512;56.312;101.728;2023-02-16T08:27:18;97195.47;;;2.81;49.10
45129;BME280;35512;56.312;101.728;2023-02-16T08:29:47;97207.69;;;2.68;48.26
45129;BME280;35512;56.312;101.728;2023-02-16T08:32:16;97210.25;;;2.59;48.73
45129;BME280;35512;56.312;101.728;2023-02-16T08:34:45;97208.78;;;2.48;48.84
45129;BME280;35512;56.312;101.728;2023-02-16T08:37:14;97201.81;;;2.33;49.24
45129;BME280;35512;56.312;101.728;2023-02-16T08:39:43;97198.28;;;1.99;48.53
45129;BME280;35512;56.312;101.728;2023-02-16T08:42:12;97207.47;;;1.45;49.01
45129;BME280;35512;56.312;101.728;2023-02-16T08:44:41;97209.72;;;1.08;49.81
45129;BME280;35512;56.312;101.728;2023-02-16T08:47:09;97207.41;;;0.67;50.01
45129;BME280;35512;56.312;101.728;2023-02-16T08:49:39;97216.63;;;0.45;50.52
45129;BME280;35512;56.312;101.728;2023-02-16T08:52:08;97215.16;;;0.24;49.82
45129;BME280;35512;56.312;101.728;2023-02-16T08:54:38;97215.97;;;-0.31;49.75
45129;BME280;35512;56.312;101.728;2023-02-16T08:57:07;97212.16;;;-0.80;50.55
45129;BME280;35512;56.312;101.728;2023-02-16T08:59:36;97210.88;;;-1.24;50.17
45129;BME280;35512;56.312;101.728;2023-02-16T09:02:05;97210.56;;;-1.79;50.32
45129;BME280;35512;56.312;101.728;2023-02-16T09:04:35;97215.81;;;-2.15;50.92
45129;BME280;35512;56.312;101.728;2023-02-16T09:07:04;97210.91;;;-2.49;50.69
45129;BME280;35512;56.312;101.728;2023-02-16T09:09:33;97215.19;;;-2.96;50.02
45129;BME280;35512;56.312;101.728;2023-02-16T09:12:02;97212.19;;;-4.02;49.50
45129;BME280;35512;56.312;101.728;2023-02-16T09:14:31;97211.44;;;-5.25;50.62
45129;BME280;35512;56.312;101.728;2023-02-16T09:17:00;97221.03;;;-6.16;51.45
45129;BME280;35512;56.312;101.728;2023-02-16T09:19:30;97220.78;;;-7.07;52.18
45129;BME280;35512;56.312;101.728;2023-02-16T09:22:00;97220.34;;;-7.70;52.69
45129;BME280;35512;56.312;101.728;2023-02-16T09:24:30;97228.63;;;-8.27;53.44
45129;BME280;35512;56.312;101.728;2023-02-16T09:26:59;97219.00;;;-8.82;53.89
45129;BME280;35512;56.312;101.728;2023-02-16T09:29:29;97225.66;;;-9.24;53.99
45129;BME280;35512;56.312;101.728;2023-02-16T09:31:57;97229.94;;;-9.55;54.83
45129;BME280;35512;56.312;101.728;2023-02-16T09:34:27;97230.34;;;-9.83;54.84
45129;BME280;35512;56.312;101.728;2023-02-16T09:36:57;97221.75;;;-10.22;54.56
45129;BME280;35512;56.312;101.728;2023-02-16T09:39:26;97233.59;;;-10.58;54.54
45129;BME280;35512;56.312;101.728;2023-02-16T09:41:59;97231.69;;;-10.90;55.11
45129;BME280;35512;56.312;101.728;2023-02-16T09:47:35;97215.94;;;-11.42;55.34
45129;BME280;35512;56.312;101.728;2023-02-16T09:50:27;97231.19;;;-11.65;55.25
45129;BME280;35512;56.312;101.728;2023-02-16T09:53:23;97220.34;;;-12.02;55.34
45129;BME280;35512;56.312;101.728;2023-02-16T09:56:03;97227.13;;;-12.21;55.69
45129;BME280;35512;56.312;101.728;2023-02-16T10:04:39;97237.16;;;-12.73;55.74
45129;BME280;35512;56.312;101.728;2023-02-16T10:09:55;97230.50;;;-13.24;56.17
45129;BME280;35512;56.312;101.728;2023-02-16T10:12:28;97236.44;;;-13.31;56.03
45129;BME280;35512;56.312;101.728;2023-02-16T10:15:21;97235.44;;;-13.36;56.87
45129;BME280;35512;56.312;101.728;2023-02-16T10:17:59;97225.78;;;-13.49;56.68
45129;BME280;35512;56.312;101.728;2023-02-16T10:20:41;97238.25;;;-13.60;56.29
45129;BME280;35512;56.312;101.728;2023-02-16T10:26:37;97231.59;;;-13.90;56.77
45129;BME280;35512;56.312;101.728;2023-02-16T10:29:14;97237.69;;;-14.05;56.83
45129;BME280;35512;56.312;101.728;2023-02-16T10:39:39;97233.44;;;-14.49;57.50
45129;BME280;35512;56.312;101.728;2023-02-16T10:45:16;97226.03;;;-14.52;57.92
45129;BME280;35512;56.312;101.728;2023-02-16T10:47:47;97228.53;;;-14.59;57.54
45129;BME280;35512;56.312;101.728;2023-02-16T10:50:27;97236.91;;;-14.64;57.65
45129;BME280;35512;56.312;101.728;2023-02-16T10:53:03;97240.22;;;-14.70;57.70
45129;BME280;35512;56.312;101.728;2023-02-16T10:55:33;97231.28;;;-14.82;57.95
45129;BME280;35512;56.312;101.728;2023-02-16T10:58:02;97237.34;;;-14.75;58.04
45129;BME280;35512;56.312;101.728;2023-02-16T11:03:17;97234.25;;;-14.85;57.84
45129;BME280;35512;56.312;101.728;2023-02-16T11:05:47;97231.84;;;-14.87;57.94
45129;BME280;35512;56.312;101.728;2023-02-16T11:08:16;97233.63;;;-14.87;58.22
45129;BME280;35512;56.312;101.728;2023-02-16T11:10:50;97238.97;;;-14.89;58.46
45129;BME280;35512;56.312;101.728;2023-02-16T11:13:28;97236.75;;;-14.92;58.13
45129;BME280;35512;56.312;101.728;2023-02-16T11:16:09;97231.03;;;-15.02;58.81
45129;BME280;35512;56.312;101.728;2023-02-16T11:18:41;97242.03;;;-15.00;58.71
45129;BME280;35512;56.312;101.728;2023-02-16T11:21:12;97219.00;;;-15.10;58.50
45129;BME280;35512;56.312;101.728;2023-02-16T11:23:42;97235.78;;;-15.06;58.76
45129;BME280;35512;56.312;101.728;2023-02-16T11:28:46;97231.03;;;-15.17;58.68
45129;BME280;35512;56.312;101.728;2023-02-16T11:33:59;97229.44;;;-15.33;58.74
45129;BME280;35512;56.312;101.728;2023-02-16T11:36:36;97231.06;;;-15.32;58.91
45129;BME280;35512;56.312;101.728;2023-02-16T11:41:48;97225.88;;;-15.47;58.90
45129;BME280;35512;56.312;101.728;2023-02-16T11:44:42;97218.31;;;-15.57;59.14
45129;BME280;35512;56.312;101.728;2023-02-16T11:47:24;97233.53;;;-15.54;59.49
45129;BME280;35512;56.312;101.728;2023-02-16T11:50:20;97239.03;;;-15.57;59.47
45129;BME280;35512;56.312;101.728;2023-02-16T11:52:52;97238.13;;;-15.64;59.35
45129;BME280;35512;56.312;101.728;2023-02-16T11:55:30;97236.88;;;-15.68;59.48
45129;BME280;35512;56.312;101.728;2023-02-16T12:06:58;97236.53;;;-15.80;59.56
45129;BME280;35512;56.312;101.728;2023-02-16T12:31:13;97233.63;;;-16.00;60.18
45129;BME280;35512;56.312;101.728;2023-02-16T12:37:08;97231.25;;;-16.10;60.31
45129;BME280;35512;56.312;101.728;2023-02-16T12:42:43;97237.94;;;-16.16;60.33
45129;BME280;35512;56.312;101.728;2023-02-16T12:45:31;97228.56;;;-16.17;60.28
45129;BME280;35512;56.312;101.728;2023-02-16T12:50:45;97227.69;;;-16.32;60.40
45129;BME280;35512;56.312;101.728;2023-02-16T12:53:29;97225.56;;;-16.28;60.87
45129;BME280;35512;56.312;101.728;2023-02-16T12:56:02;97230.56;;;-16.27;60.77
45129;BME280;35512;56.312;101.728;2023-02-16T12:58:38;97232.69;;;-16.30;60.66
45129;BME280;35512;56.312;101.728;2023-02-16T13:01:21;97228.66;;;-16.33;60.56
45129;BME280;35512;56.312;101.728;2023-02-16T13:12:25;97237.44;;;-16.11;61.18
45129;BME280;35512;56.312;101.728;2023-02-16T13:15:12;97227.69;;;-16.09;60.72
45129;BME280;35512;56.312;101.728;2023-02-16T13:17:47;97228.09;;;-16.20;60.74
45129;BME280;35512;56.312;101.728;2023-02-16T13:20:19;97236.84;;;-16.21;60.75
45129;BME280;35512;56.312;101.728;2023-02-16T13:42:48;97234.34;;;-16.38;61.09
45129;BME280;35512;56.312;101.728;2023-02-16T13:45:27;97229.41;;;-16.47;60.93
45129;BME280;35512;56.312;101.728;2023-02-16T13:47:58;97232.72;;;-16.62;61.10
45129;BME280;35512;56.312;101.728;2023-02-16T13:50:31;97222.63;;;-16.80;61.11
45129;BME280;35512;56.312;101.728;2023-02-16T13:53:14;97237.22;;;-16.87;61.52
45129;BME280;35512;56.312;101.728;2023-02-16T13:55:46;97235.47;;;-16.95;61.47
45129;BME280;35512;56.312;101.728;2023-02-16T14:00:47;97233.06;;;-16.96;61.50
45129;BME280;35512;56.312;101.728;2023-02-16T14:05:49;97233.09;;;-17.05;61.53
45129;BME280;35512;56.312;101.728;2023-02-16T14:08:36;97228.09;;;-17.06;61.80
45129;BME280;35512;56.312;101.728;2023-02-16T14:11:07;97224.56;;;-17.05;61.54
45129;BME280;35512;56.312;101.728;2023-02-16T14:16:23;97231.63;;;-16.99;61.56
45129;BME280;35512;56.312;101.728;2023-02-16T14:18:57;97218.41;;;-17.04;61.74
45129;BME280;35512;56.312;101.728;2023-02-16T14:21:30;97226.63;;;-17.01;61.46
45129;BME280;35512;56.312;101.728;2023-02-16T14:24:01;97218.91;;;-17.09;61.37
45129;BME280;35512;56.312;101.728;2023-02-16T14:26:34;97219.13;;;-17.19;61.39
45129;BME280;35512;56.312;101.728;2023-02-16T14:29:27;97225.41;;;-17.21;61.85
45129;BME280;35512;56.312;101.728;2023-02-16T14:32:33;97219.75;;;-17.16;61.81
45129;BME280;35512;56.312;101.728;2023-02-16T14:35:13;97219.88;;;-17.10;61.60
45129;BME280;35512;56.312;101.728;2023-02-16T14:38:00;97223.91;;;-17.07;61.79
45129;BME280;35512;56.312;101.728;2023-02-16T14:40:42;97223.75;;;-17.06;61.72
45129;BME280;35512;56.312;101.728;2023-02-16T14:45:57;97229.72;;;-17.05;61.93
45129;BME280;35512;56.312;101.728;2023-02-16T14:57:34;97214.56;;;-17.16;61.65
45129;BME280;35512;56.312;101.728;2023-02-16T15:03:37;97219.47;;;-17.38;61.96
45129;BME280;35512;56.312;101.728;2023-02-16T15:06:03;97220.31;;;-17.46;62.05
45129;BME280;35512;56.312;101.728;2023-02-16T15:08:36;97212.44;;;-17.53;61.99
45129;BME280;35512;56.312;101.728;2023-02-16T15:11:15;97219.50;;;-17.46;62.29
45129;BME280;35512;56.312;101.728;2023-02-16T15:13:47;97216.59;;;-17.43;62.33
45129;BME280;35512;56.312;101.728;2023-02-16T15:16:21;97207.69;;;-17.41;62.21
45129;BME280;35512;56.312;101.728;2023-02-16T15:18:52;97211.41;;;-17.35;62.33
45129;BME280;35512;56.312;101.728;2023-02-16T15:21:25;97210.59;;;-17.36;62.32
45129;BME280;35512;56.312;101.728;2023-02-16T15:23:59;97202.53;;;-17.32;62.31
45129;BME280;35512;56.312;101.728;2023-02-16T15:26:33;97189.31;;;-17.38;62.23
45129;BME280;35512;56.312;101.728;2023-02-16T15:31:44;97186.88;;;-17.31;62.41
45129;BME280;35512;56.312;101.728;2023-02-16T15:34:24;97193.78;;;-17.23;62.47
45129;BME280;35512;56.312;101.728;2023-02-16T15:36:54;97192.00;;;-17.23;62.24
45129;BME280;35512;56.312;101.728;2023-02-16T15:39:29;97188.56;;;-17.15;62.40
45129;BME280;35512;56.312;101.728;2023-02-16T15:42:26;97192.44;;;-17.11;62.44
45129;BME280;35512;56.312;101.728;2023-02-16T15:44:56;97196.47;;;-17.08;62.41
45129;BME280;35512;56.312;101.728;2023-02-16T15:47:25;97189.06;;;-17.11;62.32
45129;BME280;35512;56.312;101.728;2023-02-16T15:49:54;97185.84;;;-17.13;62.21
45129;BME280;35512;56.312;101.728;2023-02-16T15:52:31;97178.28;;;-17.23;62.50
45129;BME280;35512;56.312;101.728;2023-02-16T15:55:04;97188.56;;;-17.15;62.51
45129;BME280;35512;56.312;101.728;2023-02-16T15:57:36;97190.19;;;-17.14;62.63